sensor_id;sensor_type;location;lat;lon;timestamp;P1;durP1;ratioP1;P2;durP2;ratioP2
25780;SDS011;13626;48.128;11.628;2023-03-23T00:02:24;3.92;;;2.50;;
25780;SDS011;13626;48.128;11.628;2023-03-23T00:04:50;4.15;;;2.20;;
25780;SDS011;13626;48.128;11.628;2023-03-23T00:07:18;3.40;;;2.35;;
25780;SDS011;13626;48.128;11.628;2023-03-23T00:09:49;7.07;;;2.70;;
25780;SDS011;13626;48.128;11.628;2023-03-23T00:12:30;5.25;;;2.65;;
25780;SDS011;13626;48.128;11.628;2023-03-23T00:15:00;5.68;;;2.50;;
25780;SDS011;13626;48.128;11.628;2023-03-23T00:17:27;4.30;;;2.20;;
25780;SDS011;13626;48.128;11.628;2023-03-23T00:19:53;8.73;;;2.60;;
25780;SDS011;13626;48.128;11.628;2023-03-23T00:22:19;4.65;;;2.97;;
25780;SDS011;13626;48.128;11.628;2023-03-23T00:24:47;3.45;;;2.30;;
25780;SDS011;13626;48.128;11.628;2023-03-23T00:27:15;4.63;;;2.65;;
25780;SDS011;13626;48.128;11.628;2023-03-23T00:29:42;4.95;;;2.47;;
25780;SDS011;13626;48.128;11.628;2023-03-23T00:32:10;3.63;;;2.60;;
25780;SDS011;13626;48.128;11.628;2023-03-23T00:34:39;2.50;;;2.15;;
25780;SDS011;13626;48.128;11.628;2023-03-23T00:37:08;3.40;;;2.08;;
25780;SDS011;13626;48.128;11.628;2023-03-23T00:39:34;3.42;;;2.10;;
25780;SDS011;13626;48.128;11.628;2023-03-23T00:42:04;4.93;;;2.85;;
25780;SDS011;13626;48.128;11.628;2023-03-23T00:44:31;4.25;;;2.47;;
25780;SDS011;13626;48.128;11.628;2023-03-23T00:47:00;3.45;;;2.40;;
25780;SDS011;13626;48.128;11.628;2023-03-23T00:49:26;3.55;;;2.45;;
25780;SDS011;13626;48.128;11.628;2023-03-23T00:51:53;3.63;;;2.28;;
25780;SDS011;13626;48.128;11.628;2023-03-23T00:54:20;5.65;;;2.70;;
25780;SDS011;13626;48.128;11.628;2023-03-23T00:56:46;5.00;;;2.33;;
25780;SDS011;13626;48.128;11.628;2023-03-23T00:59:12;3.80;;;2.45;;
25780;SDS011;13626;48.128;11.628;2023-03-23T01:01:39;3.30;;;2.45;;
25780;SDS011;13626;48.128;11.628;2023-03-23T01:04:05;3.38;;;2.20;;
25780;SDS011;13626;48.128;11.628;2023-03-23T01:06:32;3.83;;;2.15;;
25780;SDS011;13626;48.128;11.628;2023-03-23T01:09:00;3.85;;;2.30;;
25780;SDS011;13626;48.128;11.628;2023-03-23T01:11:28;2.78;;;2.20;;
25780;SDS011;13626;48.128;11.628;2023-03-23T01:13:54;3.47;;;2.70;;
25780;SDS011;13626;48.128;11.628;2023-03-23T01:16:20;3.15;;;2.17;;
25780;SDS011;13626;48.128;11.628;2023-03-23T01:18:47;3.40;;;2.20;;
25780;SDS011;13626;48.128;11.628;2023-03-23T01:21:14;3.25;;;2.28;;
25780;SDS011;13626;48.128;11.628;2023-03-23T01:23:41;3.10;;;2.50;;
25780;SDS011;13626;48.128;11.628;2023-03-23T01:26:08;4.50;;;2.10;;
25780;SDS011;13626;48.128;11.628;2023-03-23T01:28:35;2.88;;;2.40;;
25780;SDS011;13626;48.128;11.628;2023-03-23T01:31:05;7.03;;;2.67;;
25780;SDS011;13626;48.128;11.628;2023-03-23T01:33:32;4.15;;;2.00;;
25780;SDS011;13626;48.128;11.628;2023-03-23T01:36:02;2.63;;;1.98;;
25780;SDS011;13626;48.128;11.628;2023-03-23T01:38:29;3.35;;;2.08;;
25780;SDS011;13626;48.128;11.628;2023-03-23T01:40:56;3.05;;;2.20;;
25780;SDS011;13626;48.128;11.628;2023-03-23T01:43:22;5.35;;;2.20;;
25780;SDS011;13626;48.128;11.628;2023-03-23T01:45:48;3.05;;;2.42;;
25780;SDS011;13626;48.128;11.628;2023-03-23T01:48:22;3.38;;;2.40;;
25780;SDS011;13626;48.128;11.628;2023-03-23T01:53:15;2.80;;;2.17;;
25780;SDS011;13626;48.128;11.628;2023-03-23T01:55:42;3.13;;;2.15;;
25780;SDS011;13626;48.128;11.628;2023-03-23T01:58:13;3.35;;;2.20;;
25780;SDS011;13626;48.128;11.628;2023-03-23T02:00:39;4.18;;;2.30;;
25780;SDS011;13626;48.128;11.628;2023-03-23T02:03:07;4.05;;;2.08;;
25780;SDS011;13626;48.128;11.628;2023-03-23T02:05:36;3.80;;;2.05;;
25780;SDS011;13626;48.128;11.628;2023-03-23T02:08:04;3.13;;;2.20;;
25780;SDS011;13626;48.128;11.628;2023-03-23T02:10:32;4.32;;;2.45;;
25780;SDS011;13626;48.128;11.628;2023-03-23T02:12:59;2.83;;;2.05;;
25780;SDS011;13626;48.128;11.628;2023-03-23T02:15:28;5.05;;;2.15;;
25780;SDS011;13626;48.128;11.628;2023-03-23T02:26:01;2.83;;;2.03;;
25780;SDS011;13626;48.128;11.628;2023-03-23T02:41:33;4.38;;;2.03;;
25780;SDS011;13626;48.128;11.628;2023-03-23T02:44:00;3.58;;;2.35;;
25780;SDS011;13626;48.128;11.628;2023-03-23T02:46:27;2.78;;;2.30;;
25780;SDS011;13626;48.128;11.628;2023-03-23T02:48:54;2.88;;;2.35;;
25780;SDS011;13626;48.128;11.628;2023-03-23T02:51:21;3.55;;;1.95;;
25780;SDS011;13626;48.128;11.628;2023-03-23T02:53:48;3.45;;;1.95;;
25780;SDS011;13626;48.128;11.628;2023-03-23T02:56:17;4.03;;;2.35;;
25780;SDS011;13626;48.128;11.628;2023-03-23T02:58:44;4.20;;;2.10;;
25780;SDS011;13626;48.128;11.628;2023-03-23T03:04:15;4.38;;;2.65;;
25780;SDS011;13626;48.128;11.628;2023-03-23T03:06:54;2.55;;;2.00;;
25780;SDS011;13626;48.128;11.628;2023-03-23T03:09:30;2.72;;;1.80;;
25780;SDS011;13626;48.128;11.628;2023-03-23T03:12:03;3.13;;;2.25;;
25780;SDS011;13626;48.128;11.628;2023-03-23T03:14:34;2.47;;;1.75;;
25780;SDS011;13626;48.128;11.628;2023-03-23T03:17:08;2.63;;;1.70;;
25780;SDS011;13626;48.128;11.628;2023-03-23T03:19:40;2.28;;;1.85;;
25780;SDS011;13626;48.128;11.628;2023-03-23T03:22:08;3.50;;;1.85;;
25780;SDS011;13626;48.128;11.628;2023-03-23T03:24:34;2.60;;;2.00;;
25780;SDS011;13626;48.128;11.628;2023-03-23T03:27:05;2.20;;;1.88;;
25780;SDS011;13626;48.128;11.628;2023-03-23T03:29:38;5.25;;;2.33;;
25780;SDS011;13626;48.128;11.628;2023-03-23T03:32:06;4.15;;;2.42;;
25780;SDS011;13626;48.128;11.628;2023-03-23T03:34:34;3.20;;;1.80;;
25780;SDS011;13626;48.128;11.628;2023-03-23T03:37:01;2.17;;;1.90;;
25780;SDS011;13626;48.128;11.628;2023-03-23T03:39:30;4.90;;;2.22;;
25780;SDS011;13626;48.128;11.628;2023-03-23T03:41:56;4.32;;;2.20;;
25780;SDS011;13626;48.128;11.628;2023-03-23T03:44:22;2.85;;;1.85;;
25780;SDS011;13626;48.128;11.628;2023-03-23T03:46:48;2.80;;;1.98;;
25780;SDS011;13626;48.128;11.628;2023-03-23T03:49:14;5.63;;;2.10;;
25780;SDS011;13626;48.128;11.628;2023-03-23T03:51:40;2.08;;;1.85;;
25780;SDS011;13626;48.128;11.628;2023-03-23T03:54:07;2.30;;;2.05;;
25780;SDS011;13626;48.128;11.628;2023-03-23T03:56:33;3.70;;;1.77;;
25780;SDS011;13626;48.128;11.628;2023-03-23T03:59:02;4.32;;;2.03;;
25780;SDS011;13626;48.128;11.628;2023-03-23T04:01:28;2.83;;;1.70;;
25780;SDS011;13626;48.128;11.628;2023-03-23T04:03:54;3.30;;;1.98;;
25780;SDS011;13626;48.128;11.628;2023-03-23T04:06:22;2.90;;;1.85;;
25780;SDS011;13626;48.128;11.628;2023-03-23T04:08:48;2.08;;;1.67;;
25780;SDS011;13626;48.128;11.628;2023-03-23T04:11:15;2.60;;;2.00;;
25780;SDS011;13626;48.128;11.628;2023-03-23T04:13:41;4.63;;;2.15;;
25780;SDS011;13626;48.128;11.628;2023-03-23T04:16:07;1.80;;;1.60;;
25780;SDS011;13626;48.128;11.628;2023-03-23T04:18:33;3.30;;;1.80;;
25780;SDS011;13626;48.128;11.628;2023-03-23T04:21:00;3.42;;;1.73;;
25780;SDS011;13626;48.128;11.628;2023-03-23T04:23:27;2.40;;;1.48;;
25780;SDS011;13626;48.128;11.628;2023-03-23T04:25:55;4.45;;;2.30;;
25780;SDS011;13626;48.128;11.628;2023-03-23T04:28:23;2.90;;;1.83;;
25780;SDS011;13626;48.128;11.628;2023-03-23T04:30:51;3.40;;;1.70;;
25780;SDS011;13626;48.128;11.628;2023-03-23T04:33:24;2.03;;;1.55;;
25780;SDS011;13626;48.128;11.628;2023-03-23T04:35:54;3.25;;;2.00;;
25780;SDS011;13626;48.128;11.628;2023-03-23T04:38:21;1.95;;;1.67;;
25780;SDS011;13626;48.128;11.628;2023-03-23T04:40:48;2.17;;;1.67;;
25780;SDS011;13626;48.128;11.628;2023-03-23T04:43:19;4.55;;;2.10;;
25780;SDS011;13626;48.128;11.628;2023-03-23T04:45:47;3.22;;;2.28;;
25780;SDS011;13626;48.128;11.628;2023-03-23T04:48:13;2.30;;;1.85;;
25780;SDS011;13626;48.128;11.628;2023-03-23T04:50:39;4.07;;;1.98;;
25780;SDS011;13626;48.128;11.628;2023-03-23T04:53:06;2.83;;;1.88;;
25780;SDS011;13626;48.128;11.628;2023-03-23T04:55:32;1.77;;;1.67;;
25780;SDS011;13626;48.128;11.628;2023-03-23T04:58:05;3.30;;;1.60;;
25780;SDS011;13626;48.128;11.628;2023-03-23T05:00:34;4.45;;;2.03;;
25780;SDS011;13626;48.128;11.628;2023-03-23T05:03:00;3.30;;;1.90;;
25780;SDS011;13626;48.128;11.628;2023-03-23T05:05:27;2.55;;;1.80;;
25780;SDS011;13626;48.128;11.628;2023-03-23T05:07:55;4.25;;;1.70;;
25780;SDS011;13626;48.128;11.628;2023-03-23T05:10:22;2.88;;;2.05;;
25780;SDS011;13626;48.128;11.628;2023-03-23T05:12:48;2.78;;;1.90;;
25780;SDS011;13626;48.128;11.628;2023-03-23T05:15:15;3.35;;;1.88;;
25780;SDS011;13626;48.128;11.628;2023-03-23T05:17:41;4.05;;;2.28;;
25780;SDS011;13626;48.128;11.628;2023-03-23T05:20:15;6.00;;;1.67;;
25780;SDS011;13626;48.128;11.628;2023-03-23T05:22:45;3.60;;;2.00;;
25780;SDS011;13626;48.128;11.628;2023-03-23T05:25:12;2.63;;;1.90;;
25780;SDS011;13626;48.128;11.628;2023-03-23T05:27:39;5.07;;;2.13;;
25780;SDS011;13626;48.128;11.628;2023-03-23T05:30:08;5.47;;;2.28;;
25780;SDS011;13626;48.128;11.628;2023-03-23T05:32:35;2.42;;;1.90;;
25780;SDS011;13626;48.128;11.628;2023-03-23T05:35:02;2.28;;;1.95;;
25780;SDS011;13626;48.128;11.628;2023-03-23T05:37:29;4.35;;;1.85;;
25780;SDS011;13626;48.128;11.628;2023-03-23T05:39:59;3.55;;;2.10;;
25780;SDS011;13626;48.128;11.628;2023-03-23T05:42:30;4.85;;;2.05;;
25780;SDS011;13626;48.128;11.628;2023-03-23T05:44:57;5.97;;;1.60;;
25780;SDS011;13626;48.128;11.628;2023-03-23T05:47:23;3.95;;;2.20;;
25780;SDS011;13626;48.128;11.628;2023-03-23T05:49:50;4.50;;;2.20;;
25780;SDS011;13626;48.128;11.628;2023-03-23T05:52:17;12.70;;;2.38;;
25780;SDS011;13626;48.128;11.628;2023-03-23T05:54:44;6.65;;;2.63;;
25780;SDS011;13626;48.128;11.628;2023-03-23T05:57:10;4.68;;;2.60;;
25780;SDS011;13626;48.128;11.628;2023-03-23T05:59:36;4.50;;;2.70;;
25780;SDS011;13626;48.128;11.628;2023-03-23T06:02:03;9.18;;;3.17;;
25780;SDS011;13626;48.128;11.628;2023-03-23T06:04:29;6.72;;;4.22;;
25780;SDS011;13626;48.128;11.628;2023-03-23T06:06:58;6.68;;;2.60;;
25780;SDS011;13626;48.128;11.628;2023-03-23T06:09:24;4.07;;;2.45;;
25780;SDS011;13626;48.128;11.628;2023-03-23T06:11:51;6.85;;;2.40;;
25780;SDS011;13626;48.128;11.628;2023-03-23T06:14:17;3.95;;;1.80;;
25780;SDS011;13626;48.128;11.628;2023-03-23T06:16:43;2.55;;;1.83;;
25780;SDS011;13626;48.128;11.628;2023-03-23T06:19:09;4.40;;;1.98;;
25780;SDS011;13626;48.128;11.628;2023-03-23T06:21:36;2.78;;;1.60;;
25780;SDS011;13626;48.128;11.628;2023-03-23T06:24:02;4.10;;;1.90;;
25780;SDS011;13626;48.128;11.628;2023-03-23T06:26:30;3.40;;;1.85;;
25780;SDS011;13626;48.128;11.628;2023-03-23T06:28:57;6.93;;;2.03;;
25780;SDS011;13626;48.128;11.628;2023-03-23T06:31:24;4.65;;;2.28;;
25780;SDS011;13626;48.128;11.628;2023-03-23T06:33:50;3.70;;;2.30;;
25780;SDS011;13626;48.128;11.628;2023-03-23T06:36:16;4.88;;;2.05;;
25780;SDS011;13626;48.128;11.628;2023-03-23T06:38:43;2.65;;;2.03;;
25780;SDS011;13626;48.128;11.628;2023-03-23T06:41:10;8.07;;;2.25;;
25780;SDS011;13626;48.128;11.628;2023-03-23T06:43:36;9.27;;;2.33;;
25780;SDS011;13626;48.128;11.628;2023-03-23T06:46:04;7.03;;;2.60;;
25780;SDS011;13626;48.128;11.628;2023-03-23T06:48:31;4.15;;;2.05;;
25780;SDS011;13626;48.128;11.628;2023-03-23T06:50:57;6.30;;;2.10;;
25780;SDS011;13626;48.128;11.628;2023-03-23T06:53:23;4.20;;;2.17;;
25780;SDS011;13626;48.128;11.628;2023-03-23T06:55:49;6.35;;;2.17;;
25780;SDS011;13626;48.128;11.628;2023-03-23T06:58:16;4.30;;;2.47;;
25780;SDS011;13626;48.128;11.628;2023-03-23T07:00:42;4.68;;;2.30;;
25780;SDS011;13626;48.128;11.628;2023-03-23T07:03:09;4.25;;;1.92;;
25780;SDS011;13626;48.128;11.628;2023-03-23T07:05:35;7.25;;;2.17;;
25780;SDS011;13626;48.128;11.628;2023-03-23T07:08:02;6.00;;;2.17;;
25780;SDS011;13626;48.128;11.628;2023-03-23T07:10:29;4.40;;;2.78;;
25780;SDS011;13626;48.128;11.628;2023-03-23T07:12:55;3.00;;;1.90;;
25780;SDS011;13626;48.128;11.628;2023-03-23T07:15:21;2.78;;;1.88;;
25780;SDS011;13626;48.128;11.628;2023-03-23T07:17:47;3.80;;;1.90;;
25780;SDS011;13626;48.128;11.628;2023-03-23T07:20:14;2.28;;;1.70;;
25780;SDS011;13626;48.128;11.628;2023-03-23T07:22:40;3.53;;;2.00;;
25780;SDS011;13626;48.128;11.628;2023-03-23T07:25:07;4.35;;;2.00;;
25780;SDS011;13626;48.128;11.628;2023-03-23T07:27:33;4.97;;;1.90;;
25780;SDS011;13626;48.128;11.628;2023-03-23T07:29:59;2.65;;;2.03;;
25780;SDS011;13626;48.128;11.628;2023-03-23T07:32:25;3.08;;;1.77;;
25780;SDS011;13626;48.128;11.628;2023-03-23T07:34:52;2.38;;;1.60;;
25780;SDS011;13626;48.128;11.628;2023-03-23T07:37:18;3.90;;;1.63;;
25780;SDS011;13626;48.128;11.628;2023-03-23T07:39:44;3.30;;;1.60;;
25780;SDS011;13626;48.128;11.628;2023-03-23T07:42:10;3.38;;;1.98;;
25780;SDS011;13626;48.128;11.628;2023-03-23T07:44:37;2.67;;;1.65;;
25780;SDS011;13626;48.128;11.628;2023-03-23T07:47:03;2.97;;;2.05;;
25780;SDS011;13626;48.128;11.628;2023-03-23T07:49:29;4.65;;;1.75;;
25780;SDS011;13626;48.128;11.628;2023-03-23T07:51:56;4.80;;;2.13;;
25780;SDS011;13626;48.128;11.628;2023-03-23T07:54:23;3.60;;;1.90;;
25780;SDS011;13626;48.128;11.628;2023-03-23T07:56:49;4.38;;;1.80;;
25780;SDS011;13626;48.128;11.628;2023-03-23T07:59:15;6.47;;;2.28;;
25780;SDS011;13626;48.128;11.628;2023-03-23T08:01:42;3.35;;;1.80;;
25780;SDS011;13626;48.128;11.628;2023-03-23T08:04:08;4.90;;;2.10;;
25780;SDS011;13626;48.128;11.628;2023-03-23T08:06:34;2.78;;;1.75;;
25780;SDS011;13626;48.128;11.628;2023-03-23T08:09:01;4.18;;;2.08;;
25780;SDS011;13626;48.128;11.628;2023-03-23T08:11:31;2.60;;;1.83;;
25780;SDS011;13626;48.128;11.628;2023-03-23T08:13:58;2.70;;;2.10;;
25780;SDS011;13626;48.128;11.628;2023-03-23T08:16:24;2.50;;;1.90;;
25780;SDS011;13626;48.128;11.628;2023-03-23T08:18:50;4.32;;;2.00;;
25780;SDS011;13626;48.128;11.628;2023-03-23T08:21:17;3.47;;;2.00;;
25780;SDS011;13626;48.128;11.628;2023-03-23T08:23:43;2.97;;;2.00;;
25780;SDS011;13626;48.128;11.628;2023-03-23T08:26:10;4.68;;;2.53;;
25780;SDS011;13626;48.128;11.628;2023-03-23T08:28:36;7.47;;;2.10;;
25780;SDS011;13626;48.128;11.628;2023-03-23T08:31:10;4.85;;;1.85;;
25780;SDS011;13626;48.128;11.628;2023-03-23T08:33:36;2.50;;;2.13;;
25780;SDS011;13626;48.128;11.628;2023-03-23T08:36:03;3.00;;;1.80;;
25780;SDS011;13626;48.128;11.628;2023-03-23T08:38:29;3.17;;;1.95;;
25780;SDS011;13626;48.128;11.628;2023-03-23T08:40:59;4.93;;;2.20;;
25780;SDS011;13626;48.128;11.628;2023-03-23T08:43:26;3.90;;;1.90;;
25780;SDS011;13626;48.128;11.628;2023-03-23T08:45:53;3.40;;;2.00;;
25780;SDS011;13626;48.128;11.628;2023-03-23T08:48:20;3.15;;;1.70;;
25780;SDS011;13626;48.128;11.628;2023-03-23T08:50:46;6.90;;;2.55;;
25780;SDS011;13626;48.128;11.628;2023-03-23T08:53:12;2.55;;;1.92;;
25780;SDS011;13626;48.128;11.628;2023-03-23T08:55:39;5.18;;;2.30;;
25780;SDS011;13626;48.128;11.628;2023-03-23T08:58:05;4.00;;;1.73;;
25780;SDS011;13626;48.128;11.628;2023-03-23T09:00:32;11.73;;;2.80;;
25780;SDS011;13626;48.128;11.628;2023-03-23T09:02:58;4.03;;;1.95;;
25780;SDS011;13626;48.128;11.628;2023-03-23T09:05:25;4.00;;;1.85;;
25780;SDS011;13626;48.128;11.628;2023-03-23T09:07:52;2.97;;;1.67;;
25780;SDS011;13626;48.128;11.628;2023-03-23T09:10:19;8.70;;;2.25;;
25780;SDS011;13626;48.128;11.628;2023-03-23T09:12:46;6.05;;;2.10;;
25780;SDS011;13626;48.128;11.628;2023-03-23T09:15:13;3.05;;;1.83;;
25780;SDS011;13626;48.128;11.628;2023-03-23T09:17:44;5.18;;;2.08;;
25780;SDS011;13626;48.128;11.628;2023-03-23T09:20:11;4.40;;;2.33;;
25780;SDS011;13626;48.128;11.628;2023-03-23T09:22:42;4.15;;;1.88;;
25780;SDS011;13626;48.128;11.628;2023-03-23T09:25:12;7.97;;;2.00;;
25780;SDS011;13626;48.128;11.628;2023-03-23T09:27:41;5.40;;;1.80;;
25780;SDS011;13626;48.128;11.628;2023-03-23T09:30:08;3.88;;;2.10;;
25780;SDS011;13626;48.128;11.628;2023-03-23T09:32:35;3.90;;;1.92;;
25780;SDS011;13626;48.128;11.628;2023-03-23T09:35:02;3.97;;;1.95;;
25780;SDS011;13626;48.128;11.628;2023-03-23T09:37:29;5.60;;;1.90;;
25780;SDS011;13626;48.128;11.628;2023-03-23T09:39:55;4.72;;;2.47;;
25780;SDS011;13626;48.128;11.628;2023-03-23T09:42:29;3.50;;;2.30;;
25780;SDS011;13626;48.128;11.628;2023-03-23T09:45:02;10.80;;;2.63;;
25780;SDS011;13626;48.128;11.628;2023-03-23T09:50:19;3.92;;;2.50;;
25780;SDS011;13626;48.128;11.628;2023-03-23T09:52:54;12.00;;;2.47;;
25780;SDS011;13626;48.128;11.628;2023-03-23T09:55:21;7.15;;;2.50;;
25780;SDS011;13626;48.128;11.628;2023-03-23T09:58:10;4.57;;;2.20;;
25780;SDS011;13626;48.128;11.628;2023-03-23T10:00:40;4.63;;;2.30;;
25780;SDS011;13626;48.128;11.628;2023-03-23T10:05:40;2.95;;;2.03;;
25780;SDS011;13626;48.128;11.628;2023-03-23T10:08:11;4.95;;;2.50;;
25780;SDS011;13626;48.128;11.628;2023-03-23T10:13:25;3.78;;;2.58;;
25780;SDS011;13626;48.128;11.628;2023-03-23T10:15:54;4.68;;;2.40;;
25780;SDS011;13626;48.128;11.628;2023-03-23T10:18:38;8.88;;;2.80;;
25780;SDS011;13626;48.128;11.628;2023-03-23T10:21:07;3.45;;;2.85;;
25780;SDS011;13626;48.128;11.628;2023-03-23T10:23:51;4.88;;;3.10;;
25780;SDS011;13626;48.128;11.628;2023-03-23T10:28:54;3.70;;;2.80;;
25780;SDS011;13626;48.128;11.628;2023-03-23T10:31:23;5.15;;;2.58;;
25780;SDS011;13626;48.128;11.628;2023-03-23T10:33:53;4.30;;;2.80;;
25780;SDS011;13626;48.128;11.628;2023-03-23T10:36:42;7.72;;;2.83;;
25780;SDS011;13626;48.128;11.628;2023-03-23T10:39:19;7.93;;;3.35;;
25780;SDS011;13626;48.128;11.628;2023-03-23T10:41:46;3.60;;;2.97;;
25780;SDS011;13626;48.128;11.628;2023-03-23T10:49:14;3.88;;;2.72;;
25780;SDS011;13626;48.128;11.628;2023-03-23T10:51:42;4.07;;;3.00;;
25780;SDS011;13626;48.128;11.628;2023-03-23T10:54:09;4.30;;;2.95;;
25780;SDS011;13626;48.128;11.628;2023-03-23T10:56:39;5.45;;;3.08;;
25780;SDS011;13626;48.128;11.628;2023-03-23T10:59:19;3.38;;;2.60;;
25780;SDS011;13626;48.128;11.628;2023-03-23T11:01:47;6.20;;;2.60;;
25780;SDS011;13626;48.128;11.628;2023-03-23T11:04:15;3.80;;;2.42;;
25780;SDS011;13626;48.128;11.628;2023-03-23T11:06:45;3.60;;;2.50;;
25780;SDS011;13626;48.128;11.628;2023-03-23T11:09:13;4.90;;;2.63;;
25780;SDS011;13626;48.128;11.628;2023-03-23T11:11:42;8.40;;;3.17;;
25780;SDS011;13626;48.128;11.628;2023-03-23T11:14:19;4.63;;;2.70;;
25780;SDS011;13626;48.128;11.628;2023-03-23T11:16:49;4.30;;;2.92;;
25780;SDS011;13626;48.128;11.628;2023-03-23T11:19:26;4.20;;;2.45;;
25780;SDS011;13626;48.128;11.628;2023-03-23T11:24:36;4.35;;;2.60;;
25780;SDS011;13626;48.128;11.628;2023-03-23T11:27:03;3.85;;;2.72;;
25780;SDS011;13626;48.128;11.628;2023-03-23T11:29:32;5.38;;;2.92;;
25780;SDS011;13626;48.128;11.628;2023-03-23T11:34:26;3.45;;;2.78;;
25780;SDS011;13626;48.128;11.628;2023-03-23T11:39:35;5.63;;;2.67;;
25780;SDS011;13626;48.128;11.628;2023-03-23T11:42:13;5.75;;;2.75;;
25780;SDS011;13626;48.128;11.628;2023-03-23T11:44:40;3.78;;;2.90;;
25780;SDS011;13626;48.128;11.628;2023-03-23T11:55:00;6.53;;;2.83;;
25780;SDS011;13626;48.128;11.628;2023-03-23T11:57:29;4.60;;;2.65;;
25780;SDS011;13626;48.128;11.628;2023-03-23T11:59:55;3.15;;;2.30;;
25780;SDS011;13626;48.128;11.628;2023-03-23T12:07:56;3.88;;;2.50;;
25780;SDS011;13626;48.128;11.628;2023-03-23T12:10:27;6.20;;;2.47;;
25780;SDS011;13626;48.128;11.628;2023-03-23T12:15:39;9.50;;;3.15;;
25780;SDS011;13626;48.128;11.628;2023-03-23T12:20:59;6.72;;;2.97;;
25780;SDS011;13626;48.128;11.628;2023-03-23T12:23:38;8.45;;;2.80;;
25780;SDS011;13626;48.128;11.628;2023-03-23T12:26:17;5.30;;;2.88;;
25780;SDS011;13626;48.128;11.628;2023-03-23T12:36:32;15.05;;;3.20;;
25780;SDS011;13626;48.128;11.628;2023-03-23T12:41:58;3.97;;;2.22;;
25780;SDS011;13626;48.128;11.628;2023-03-23T12:44:29;3.85;;;2.78;;
25780;SDS011;13626;48.128;11.628;2023-03-23T12:49:39;6.05;;;2.67;;
25780;SDS011;13626;48.128;11.628;2023-03-23T12:52:12;3.63;;;2.50;;
25780;SDS011;13626;48.128;11.628;2023-03-23T12:54:58;4.03;;;2.70;;
25780;SDS011;13626;48.128;11.628;2023-03-23T13:05:08;4.55;;;2.60;;
25780;SDS011;13626;48.128;11.628;2023-03-23T13:07:37;3.53;;;2.30;;
25780;SDS011;13626;48.128;11.628;2023-03-23T13:12:46;2.40;;;2.05;;
25780;SDS011;13626;48.128;11.628;2023-03-23T13:17:58;2.35;;;1.95;;
25780;SDS011;13626;48.128;11.628;2023-03-23T13:28:31;2.63;;;1.90;;
25780;SDS011;13626;48.128;11.628;2023-03-23T13:33:25;3.58;;;1.60;;
25780;SDS011;13626;48.128;11.628;2023-03-23T13:35:51;3.47;;;1.92;;
25780;SDS011;13626;48.128;11.628;2023-03-23T13:38:24;4.90;;;1.80;;
25780;SDS011;13626;48.128;11.628;2023-03-23T13:40:51;3.17;;;1.85;;
25780;SDS011;13626;48.128;11.628;2023-03-23T13:43:34;8.60;;;2.33;;
25780;SDS011;13626;48.128;11.628;2023-03-23T13:48:50;3.45;;;1.60;;
25780;SDS011;13626;48.128;11.628;2023-03-23T13:54:03;3.15;;;1.88;;
25780;SDS011;13626;48.128;11.628;2023-03-23T13:56:40;6.30;;;1.67;;
25780;SDS011;13626;48.128;11.628;2023-03-23T13:59:16;2.25;;;2.03;;
25780;SDS011;13626;48.128;11.628;2023-03-23T14:01:54;3.65;;;2.38;;
25780;SDS011;13626;48.128;11.628;2023-03-23T14:04:20;3.03;;;1.70;;
25780;SDS011;13626;48.128;11.628;2023-03-23T14:06:47;2.97;;;1.60;;
25780;SDS011;13626;48.128;11.628;2023-03-23T14:09:16;2.40;;;1.77;;
25780;SDS011;13626;48.128;11.628;2023-03-23T14:11:47;3.75;;;1.90;;
25780;SDS011;13626;48.128;11.628;2023-03-23T14:14:17;3.47;;;1.60;;
25780;SDS011;13626;48.128;11.628;2023-03-23T14:16:48;1.98;;;1.75;;
25780;SDS011;13626;48.128;11.628;2023-03-23T14:21:50;3.55;;;2.03;;
25780;SDS011;13626;48.128;11.628;2023-03-23T14:25:07;2.78;;;2.00;;
25780;SDS011;13626;48.128;11.628;2023-03-23T14:27:10;2.88;;;1.92;;
25780;SDS011;13626;48.128;11.628;2023-03-23T14:29:37;6.38;;;1.88;;
25780;SDS011;13626;48.128;11.628;2023-03-23T14:32:05;2.50;;;1.85;;
25780;SDS011;13626;48.128;11.628;2023-03-23T14:34:32;2.97;;;1.63;;
25780;SDS011;13626;48.128;11.628;2023-03-23T14:36:59;3.17;;;1.45;;
25780;SDS011;13626;48.128;11.628;2023-03-23T14:39:26;1.65;;;1.30;;
25780;SDS011;13626;48.128;11.628;2023-03-23T14:41:54;2.80;;;1.52;;
25780;SDS011;13626;48.128;11.628;2023-03-23T14:44:22;2.45;;;1.63;;
25780;SDS011;13626;48.128;11.628;2023-03-23T14:46:49;1.45;;;1.33;;
25780;SDS011;13626;48.128;11.628;2023-03-23T14:49:16;1.83;;;1.50;;
25780;SDS011;13626;48.128;11.628;2023-03-23T14:51:50;1.60;;;1.50;;
25780;SDS011;13626;48.128;11.628;2023-03-23T14:54:21;1.60;;;1.45;;
25780;SDS011;13626;48.128;11.628;2023-03-23T14:56:47;2.83;;;1.65;;
25780;SDS011;13626;48.128;11.628;2023-03-23T14:59:13;2.97;;;1.98;;
25780;SDS011;13626;48.128;11.628;2023-03-23T15:01:39;3.35;;;2.20;;
25780;SDS011;13626;48.128;11.628;2023-03-23T15:04:15;2.70;;;2.08;;
25780;SDS011;13626;48.128;11.628;2023-03-23T15:06:42;3.55;;;1.90;;
25780;SDS011;13626;48.128;11.628;2023-03-23T15:09:13;4.78;;;2.03;;
25780;SDS011;13626;48.128;11.628;2023-03-23T15:11:40;4.25;;;2.25;;
25780;SDS011;13626;48.128;11.628;2023-03-23T15:14:20;6.50;;;1.83;;
25780;SDS011;13626;48.128;11.628;2023-03-23T15:16:48;4.75;;;1.63;;
25780;SDS011;13626;48.128;11.628;2023-03-23T15:19:19;3.78;;;2.22;;
25780;SDS011;13626;48.128;11.628;2023-03-23T15:22:31;2.42;;;1.60;;
25780;SDS011;13626;48.128;11.628;2023-03-23T15:24:39;1.70;;;1.55;;
25780;SDS011;13626;48.128;11.628;2023-03-23T15:29:31;2.90;;;1.80;;
25780;SDS011;13626;48.128;11.628;2023-03-23T15:31:57;2.65;;;1.52;;
25780;SDS011;13626;48.128;11.628;2023-03-23T15:34:27;6.78;;;3.17;;
25780;SDS011;13626;48.128;11.628;2023-03-23T15:37:02;2.17;;;1.60;;
25780;SDS011;13626;48.128;11.628;2023-03-23T15:39:30;2.35;;;1.73;;
25780;SDS011;13626;48.128;11.628;2023-03-23T15:41:57;2.35;;;1.65;;
25780;SDS011;13626;48.128;11.628;2023-03-23T15:44:31;3.22;;;2.00;;
25780;SDS011;13626;48.128;11.628;2023-03-23T15:49:29;3.28;;;1.73;;
25780;SDS011;13626;48.128;11.628;2023-03-23T15:51:56;5.03;;;1.90;;
25780;SDS011;13626;48.128;11.628;2023-03-23T15:54:22;4.35;;;1.90;;
25780;SDS011;13626;48.128;11.628;2023-03-23T15:56:49;3.20;;;1.90;;
25780;SDS011;13626;48.128;11.628;2023-03-23T15:59:15;3.08;;;1.63;;
25780;SDS011;13626;48.128;11.628;2023-03-23T16:01:42;2.58;;;1.83;;
25780;SDS011;13626;48.128;11.628;2023-03-23T16:04:14;4.88;;;2.28;;
25780;SDS011;13626;48.128;11.628;2023-03-23T16:06:46;2.65;;;1.98;;
25780;SDS011;13626;48.128;11.628;2023-03-23T16:09:15;4.50;;;3.33;;
25780;SDS011;13626;48.128;11.628;2023-03-23T16:11:42;5.22;;;2.22;;
25780;SDS011;13626;48.128;11.628;2023-03-23T16:14:10;4.78;;;1.80;;
25780;SDS011;13626;48.128;11.628;2023-03-23T16:16:38;4.68;;;1.80;;
25780;SDS011;13626;48.128;11.628;2023-03-23T16:19:05;2.08;;;1.70;;
25780;SDS011;13626;48.128;11.628;2023-03-23T16:21:32;3.72;;;2.95;;
25780;SDS011;13626;48.128;11.628;2023-03-23T16:24:00;3.97;;;2.38;;
25780;SDS011;13626;48.128;11.628;2023-03-23T16:26:27;4.65;;;1.95;;
25780;SDS011;13626;48.128;11.628;2023-03-23T16:28:54;2.88;;;1.98;;
25780;SDS011;13626;48.128;11.628;2023-03-23T16:31:38;5.00;;;2.10;;
25780;SDS011;13626;48.128;11.628;2023-03-23T16:34:05;2.65;;;2.00;;
25780;SDS011;13626;48.128;11.628;2023-03-23T16:36:33;3.33;;;1.90;;
25780;SDS011;13626;48.128;11.628;2023-03-23T16:39:00;5.20;;;1.80;;
25780;SDS011;13626;48.128;11.628;2023-03-23T16:41:27;2.42;;;1.65;;